sensor_id;sensor_type;location;lat;lon;timestamp;pressure;altitude;pressure_sealevel;temperature;humidity
63500;BME280;49654;51.142;14.924;2023-01-29T00:00:31;100251.03;;;-1.40;69.94
63500;BME280;49654;51.142;14.924;2023-01-29T00:05:36;100285.81;;;-1.22;70.49
63500;BME280;49654;51.142;14.924;2023-01-29T00:22:31;100244.94;;;-1.38;71.22
63500;BME280;49654;51.142;14.924;2023-01-29T00:32:31;100162.25;;;-1.67;70.24
63500;BME280;49654;51.142;14.924;2023-01-29T00:56:53;100139.28;;;-1.13;68.34
63500;BME280;49654;51.142;14.924;2023-01-29T01:10:11;100296.00;;;-0.34;68.56
63500;BME280;49654;51.142;14.924;2023-01-29T01:22:49;100250.84;;;-0.84;69.20
63500;BME280;49654;51.142;14.924;2023-01-29T01:25:16;100289.53;;;-0.58;69.29
63500;BME280;49654;51.142;14.924;2023-01-29T01:27:44;100277.47;;;-0.72;69.79
63500;BME280;49654;51.142;14.924;2023-01-29T01:30:13;100273.41;;;-0.93;69.79
63500;BME280;49654;51.142;14.924;2023-01-29T01:32:41;100230.00;;;-1.09;70.07
63500;BME280;49654;51.142;14.924;2023-01-29T01:35:09;100281.69;;;-0.71;69.63
63500;BME280;49654;51.142;14.924;2023-01-29T01:37:36;100275.38;;;-0.64;69.82
63500;BME280;49654;51.142;14.924;2023-01-29T01:40:07;100276.44;;;-0.68;70.09
63500;BME280;49654;51.142;14.924;2023-01-29T01:42:38;100271.69;;;-0.58;69.57
63500;BME280;49654;51.142;14.924;2023-01-29T01:45:07;100272.97;;;-0.67;69.95
63500;BME280;49654;51.142;14.924;2023-01-29T01:47:46;100253.16;;;-0.62;69.33
63500;BME280;49654;51.142;14.924;2023-01-29T01:50:15;100273.19;;;-0.54;69.42
63500;BME280;49654;51.142;14.924;2023-01-29T01:52:46;100277.50;;;-0.39;68.53
63500;BME280;49654;51.142;14.924;2023-01-29T01:55:18;100225.19;;;-0.81;68.93
63500;BME280;49654;51.142;14.924;2023-01-29T01:57:50;100273.44;;;-0.26;68.83
63500;BME280;49654;51.142;14.924;2023-01-29T02:00:19;100266.19;;;-0.33;68.05
63500;BME280;49654;51.142;14.924;2023-01-29T02:02:47;100267.66;;;-0.29;67.40
63500;BME280;49654;51.142;14.924;2023-01-29T02:05:33;100266.84;;;-0.30;67.04
63500;BME280;49654;51.142;14.924;2023-01-29T02:08:26;100280.09;;;-0.23;67.33
63500;BME280;49654;51.142;14.924;2023-01-29T02:11:14;100289.34;;;-0.20;67.07
63500;BME280;49654;51.142;14.924;2023-01-29T02:13:42;100276.31;;;-0.32;66.92
63500;BME280;49654;51.142;14.924;2023-01-29T02:16:09;100267.00;;;-0.33;67.75
63500;BME280;49654;51.142;14.924;2023-01-29T02:18:36;100261.31;;;-0.38;67.67
63500;BME280;49654;51.142;14.924;2023-01-29T02:21:19;100267.75;;;-0.48;67.63
63500;BME280;49654;51.142;14.924;2023-01-29T02:24:20;100256.25;;;-0.72;69.05
63500;BME280;49654;51.142;14.924;2023-01-29T02:27:02;100265.41;;;-0.68;68.93
63500;BME280;49654;51.142;14.924;2023-01-29T02:29:38;100253.63;;;-0.88;69.49
63500;BME280;49654;51.142;14.924;2023-01-29T02:32:20;100252.34;;;-0.80;69.52
63500;BME280;49654;51.142;14.924;2023-01-29T02:34:55;100253.53;;;-0.87;68.94
63500;BME280;49654;51.142;14.924;2023-01-29T02:37:50;100258.50;;;-1.01;70.10
63500;BME280;49654;51.142;14.924;2023-01-29T02:40:25;100273.03;;;-0.86;69.51
63500;BME280;49654;51.142;14.924;2023-01-29T02:43:02;100268.78;;;-0.85;69.33
63500;BME280;49654;51.142;14.924;2023-01-29T02:45:39;100256.53;;;-0.96;69.48
63500;BME280;49654;51.142;14.924;2023-01-29T02:48:15;100262.81;;;-1.20;70.62
63500;BME280;49654;51.142;14.924;2023-01-29T02:50:45;100255.03;;;-1.17;70.50
63500;BME280;49654;51.142;14.924;2023-01-29T02:53:15;100258.63;;;-1.04;70.27
63500;BME280;49654;51.142;14.924;2023-01-29T02:55:47;100241.56;;;-1.02;69.66
63500;BME280;49654;51.142;14.924;2023-01-29T02:58:23;100253.06;;;-1.12;69.34
63500;BME280;49654;51.142;14.924;2023-01-29T03:00:55;100246.88;;;-1.07;69.81
63500;BME280;49654;51.142;14.924;2023-01-29T03:03:28;100242.41;;;-1.20;70.29
63500;BME280;49654;51.142;14.924;2023-01-29T03:06:00;100249.69;;;-1.30;71.07
63500;BME280;49654;51.142;14.924;2023-01-29T03:08:35;100233.31;;;-1.43;70.88
63500;BME280;49654;51.142;14.924;2023-01-29T03:11:09;100226.41;;;-1.41;70.44
63500;BME280;49654;51.142;14.924;2023-01-29T03:13:42;100213.59;;;-1.57;70.87
63500;BME280;49654;51.142;14.924;2023-01-29T03:16:18;100237.50;;;-1.42;71.23
63500;BME280;49654;51.142;14.924;2023-01-29T03:18:51;100246.41;;;-1.51;71.08
63500;BME280;49654;51.142;14.924;2023-01-29T03:21:24;100236.72;;;-1.62;71.48
63500;BME280;49654;51.142;14.924;2023-01-29T03:24:13;100222.63;;;-1.69;71.52
63500;BME280;49654;51.142;14.924;2023-01-29T03:27:02;100238.53;;;-1.46;71.49
63500;BME280;49654;51.142;14.924;2023-01-29T03:29:49;100251.03;;;-1.23;71.24
63500;BME280;49654;51.142;14.924;2023-01-29T03:32:37;100254.63;;;-1.27;71.31
63500;BME280;49654;51.142;14.924;2023-01-29T03:35:06;100214.53;;;-1.60;71.46
63500;BME280;49654;51.142;14.924;2023-01-29T03:37:36;100268.50;;;-1.33;72.03
63500;BME280;49654;51.142;14.924;2023-01-29T03:40:06;100262.97;;;-1.23;71.59
63500;BME280;49654;51.142;14.924;2023-01-29T03:42:43;100260.84;;;-1.33;71.43
63500;BME280;49654;51.142;14.924;2023-01-29T03:45:19;100257.69;;;-1.38;70.85
63500;BME280;49654;51.142;14.924;2023-01-29T03:47:53;100262.31;;;-1.46;71.61
63500;BME280;49654;51.142;14.924;2023-01-29T03:50:31;100267.59;;;-1.51;71.90
63500;BME280;49654;51.142;14.924;2023-01-29T03:53:06;100264.94;;;-1.47;71.58
63500;BME280;49654;51.142;14.924;2023-01-29T03:55:37;100271.44;;;-1.42;71.21
63500;BME280;49654;51.142;14.924;2023-01-29T03:58:14;100271.19;;;-1.55;71.12
63500;BME280;49654;51.142;14.924;2023-01-29T04:00:51;100275.13;;;-1.47;71.60
63500;BME280;49654;51.142;14.924;2023-01-29T04:03:23;100269.19;;;-1.48;71.10
63500;BME280;49654;51.142;14.924;2023-01-29T04:05:55;100262.81;;;-1.57;71.49
63500;BME280;49654;51.142;14.924;2023-01-29T04:08:38;100253.31;;;-1.72;71.43
63500;BME280;49654;51.142;14.924;2023-01-29T04:11:10;100221.47;;;-1.99;71.84
63500;BME280;49654;51.142;14.924;2023-01-29T04:13:39;100256.97;;;-1.78;71.20
63500;BME280;49654;51.142;14.924;2023-01-29T04:16:10;100238.06;;;-1.91;71.72
63500;BME280;49654;51.142;14.924;2023-01-29T04:18:43;100221.94;;;-2.10;72.27
63500;BME280;49654;51.142;14.924;2023-01-29T04:21:11;100242.38;;;-1.93;72.13
63500;BME280;49654;51.142;14.924;2023-01-29T04:23:38;100244.91;;;-1.93;72.13
63500;BME280;49654;51.142;14.924;2023-01-29T04:26:32;100239.22;;;-1.98;71.90
63500;BME280;49654;51.142;14.924;2023-01-29T04:29:13;100241.13;;;-2.03;71.92
63500;BME280;49654;51.142;14.924;2023-01-29T04:31:48;100246.09;;;-2.00;71.94
63500;BME280;49654;51.142;14.924;2023-01-29T04:34:24;100206.34;;;-2.21;71.99
63500;BME280;49654;51.142;14.924;2023-01-29T04:37:07;100219.34;;;-2.09;71.71
63500;BME280;49654;51.142;14.924;2023-01-29T04:39:43;100210.22;;;-2.14;71.78
63500;BME280;49654;51.142;14.924;2023-01-29T04:42:21;100209.91;;;-2.07;71.47
63500;BME280;49654;51.142;14.924;2023-01-29T04:44:59;100204.41;;;-2.16;71.68
63500;BME280;49654;51.142;14.924;2023-01-29T04:47:32;100200.25;;;-2.19;71.72
63500;BME280;49654;51.142;14.924;2023-01-29T04:50:14;100211.41;;;-2.03;72.09
63500;BME280;49654;51.142;14.924;2023-01-29T04:52:48;100207.63;;;-1.94;71.79
63500;BME280;49654;51.142;14.924;2023-01-29T04:55:20;100211.41;;;-2.03;71.38
63500;BME280;49654;51.142;14.924;2023-01-29T04:57:54;100199.03;;;-2.10;71.91
63500;BME280;49654;51.142;14.924;2023-01-29T05:00:27;100200.69;;;-2.09;71.69
63500;BME280;49654;51.142;14.924;2023-01-29T05:02:58;100185.19;;;-2.23;71.74
63500;BME280;49654;51.142;14.924;2023-01-29T05:05:27;100154.34;;;-2.35;71.43
63500;BME280;49654;51.142;14.924;2023-01-29T05:07:56;100153.09;;;-2.26;71.49
63500;BME280;49654;51.142;14.924;2023-01-29T05:10:25;100175.25;;;-2.09;71.37
63500;BME280;49654;51.142;14.924;2023-01-29T05:12:57;100159.97;;;-2.09;71.07
63500;BME280;49654;51.142;14.924;2023-01-29T05:15:30;100162.94;;;-2.18;71.11
63500;BME280;49654;51.142;14.924;2023-01-29T05:17:59;100134.53;;;-2.28;71.12
63500;BME280;49654;51.142;14.924;2023-01-29T05:20:31;100165.31;;;-2.15;71.32
63500;BME280;49654;51.142;14.924;2023-01-29T05:22:58;100159.63;;;-2.20;70.98
63500;BME280;49654;51.142;14.924;2023-01-29T05:25:27;100156.13;;;-2.37;71.62
63500;BME280;49654;51.142;14.924;2023-01-29T05:27:55;100151.22;;;-2.41;72.10
63500;BME280;49654;51.142;14.924;2023-01-29T05:30:32;100157.06;;;-2.58;72.15
63500;BME280;49654;51.142;14.924;2023-01-29T05:32:59;100158.69;;;-2.57;72.34
63500;BME280;49654;51.142;14.924;2023-01-29T05:35:28;100139.16;;;-2.75;72.01
63500;BME280;49654;51.142;14.924;2023-01-29T05:37:56;100145.88;;;-2.74;72.75
63500;BME280;49654;51.142;14.924;2023-01-29T05:40:23;100149.63;;;-2.63;72.57
63500;BME280;49654;51.142;14.924;2023-01-29T05:42:50;100158.56;;;-2.54;72.40
63500;BME280;49654;51.142;14.924;2023-01-29T05:45:17;100132.66;;;-2.62;72.58
63500;BME280;49654;51.142;14.924;2023-01-29T05:47:45;100158.66;;;-2.37;72.26
63500;BME280;49654;51.142;14.924;2023-01-29T05:50:12;100141.34;;;-2.47;72.19
63500;BME280;49654;51.142;14.924;2023-01-29T05:52:41;100145.88;;;-2.35;72.26
63500;BME280;49654;51.142;14.924;2023-01-29T05:55:09;100166.91;;;-2.32;72.10
63500;BME280;49654;51.142;14.924;2023-01-29T05:57:36;100173.88;;;-2.16;72.18
63500;BME280;49654;51.142;14.924;2023-01-29T06:00:04;100143.72;;;-2.44;72.41
63500;BME280;49654;51.142;14.924;2023-01-29T06:02:31;100174.69;;;-2.16;71.79
63500;BME280;49654;51.142;14.924;2023-01-29T06:04:58;100179.03;;;-2.18;71.70
63500;BME280;49654;51.142;14.924;2023-01-29T06:07:25;100174.81;;;-2.19;71.56
63500;BME280;49654;51.142;14.924;2023-01-29T06:09:54;100181.22;;;-2.10;71.73
63500;BME280;49654;51.142;14.924;2023-01-29T06:12:21;100179.34;;;-2.07;71.26
63500;BME280;49654;51.142;14.924;2023-01-29T06:14:47;100188.28;;;-1.98;71.08
63500;BME280;49654;51.142;14.924;2023-01-29T06:17:14;100184.72;;;-1.94;71.14
63500;BME280;49654;51.142;14.924;2023-01-29T06:19:41;100179.63;;;-1.94;71.45
63500;BME280;49654;51.142;14.924;2023-01-29T06:22:08;100182.94;;;-1.92;70.94
63500;BME280;49654;51.142;14.924;2023-01-29T06:24:36;100181.97;;;-1.89;70.61
63500;BME280;49654;51.142;14.924;2023-01-29T06:27:04;100184.16;;;-1.82;71.11
63500;BME280;49654;51.142;14.924;2023-01-29T06:29:31;100174.81;;;-2.00;70.49
63500;BME280;49654;51.142;14.924;2023-01-29T06:31:58;100178.72;;;-1.93;70.52
63500;BME280;49654;51.142;14.924;2023-01-29T06:34:25;100183.00;;;-1.93;70.54
63500;BME280;49654;51.142;14.924;2023-01-29T06:36:52;100187.13;;;-1.91;70.74
63500;BME280;49654;51.142;14.924;2023-01-29T06:39:19;100185.31;;;-1.89;70.35
63500;BME280;49654;51.142;14.924;2023-01-29T06:41:46;100191.44;;;-1.93;70.03
63500;BME280;49654;51.142;14.924;2023-01-29T06:44:14;100211.25;;;-1.81;70.56
63500;BME280;49654;51.142;14.924;2023-01-29T06:46:41;100221.75;;;-1.87;70.83
63500;BME280;49654;51.142;14.924;2023-01-29T06:49:08;100235.41;;;-1.89;70.26
63500;BME280;49654;51.142;14.924;2023-01-29T06:51:35;100248.59;;;-1.80;70.62
63500;BME280;49654;51.142;14.924;2023-01-29T06:54:02;100252.44;;;-1.71;70.90
63500;BME280;49654;51.142;14.924;2023-01-29T06:56:31;100251.19;;;-1.62;70.44
63500;BME280;49654;51.142;14.924;2023-01-29T06:58:57;100252.69;;;-1.58;70.10
63500;BME280;49654;51.142;14.924;2023-01-29T07:01:26;100245.94;;;-1.59;70.47
63500;BME280;49654;51.142;14.924;2023-01-29T07:03:53;100247.66;;;-1.60;70.06
63500;BME280;49654;51.142;14.924;2023-01-29T07:06:20;100250.59;;;-1.50;69.68
63500;BME280;49654;51.142;14.924;2023-01-29T07:08:47;100246.88;;;-1.43;69.34
63500;BME280;49654;51.142;14.924;2023-01-29T07:11:14;100253.47;;;-1.39;69.35
63500;BME280;49654;51.142;14.924;2023-01-29T07:13:41;100262.03;;;-1.40;69.66
63500;BME280;49654;51.142;14.924;2023-01-29T07:16:08;100275.16;;;-1.30;69.48
63500;BME280;49654;51.142;14.924;2023-01-29T07:18:36;100272.97;;;-1.38;69.19
63500;BME280;49654;51.142;14.924;2023-01-29T07:21:04;100262.84;;;-1.39;69.31
63500;BME280;49654;51.142;14.924;2023-01-29T07:23:32;100273.31;;;-1.09;69.53
63500;BME280;49654;51.142;14.924;2023-01-29T07:26:00;100254.28;;;-1.02;68.92
63500;BME280;49654;51.142;14.924;2023-01-29T07:28:27;100270.19;;;-0.80;68.42
63500;BME280;49654;51.142;14.924;2023-01-29T07:30:55;100242.06;;;-1.13;68.29
63500;BME280;49654;51.142;14.924;2023-01-29T07:33:22;100224.56;;;-1.38;68.84
63500;BME280;49654;51.142;14.924;2023-01-29T07:35:51;100196.53;;;-1.38;69.08
63500;BME280;49654;51.142;14.924;2023-01-29T07:38:18;100241.31;;;-0.97;68.25
63500;BME280;49654;51.142;14.924;2023-01-29T07:40:45;100233.91;;;-0.85;68.17
63500;BME280;49654;51.142;14.924;2023-01-29T07:43:12;100239.97;;;-0.87;67.95
63500;BME280;49654;51.142;14.924;2023-01-29T07:45:39;100215.88;;;-1.16;67.91
63500;BME280;49654;51.142;14.924;2023-01-29T07:48:09;100235.84;;;-0.90;67.87
63500;BME280;49654;51.142;14.924;2023-01-29T07:50:37;100216.63;;;-0.80;67.45
63500;BME280;49654;51.142;14.924;2023-01-29T07:53:13;100183.34;;;-0.77;67.24
63500;BME280;49654;51.142;14.924;2023-01-29T07:55:43;100174.25;;;-0.49;67.10
63500;BME280;49654;51.142;14.924;2023-01-29T07:58:10;100174.06;;;-0.29;66.02
63500;BME280;49654;51.142;14.924;2023-01-29T08:00:38;100143.47;;;-0.30;65.51
63500;BME280;49654;51.142;14.924;2023-01-29T08:03:06;100140.66;;;-0.57;66.39
63500;BME280;49654;51.142;14.924;2023-01-29T08:05:35;100178.16;;;-0.75;66.78
63500;BME280;49654;51.142;14.924;2023-01-29T08:08:02;100029.13;;;-1.53;67.04
63500;BME280;49654;51.142;14.924;2023-01-29T08:10:31;100171.72;;;-0.49;67.31
63500;BME280;49654;51.142;14.924;2023-01-29T08:13:00;100081.53;;;-1.14;67.39
63500;BME280;49654;51.142;14.924;2023-01-29T08:15:28;100160.81;;;-0.86;67.63
63500;BME280;49654;51.142;14.924;2023-01-29T08:17:55;100125.84;;;-1.17;67.45
63500;BME280;49654;51.142;14.924;2023-01-29T08:20:22;100165.00;;;-0.67;68.07
63500;BME280;49654;51.142;14.924;2023-01-29T08:22:49;100162.34;;;-0.33;67.51
63500;BME280;49654;51.142;14.924;2023-01-29T08:25:16;100154.78;;;0.13;66.96
63500;BME280;49654;51.142;14.924;2023-01-29T08:27:44;100161.22;;;0.05;65.94
63500;BME280;49654;51.142;14.924;2023-01-29T08:30:11;100088.25;;;-0.15;65.48
63500;BME280;49654;51.142;14.924;2023-01-29T08:32:38;100090.63;;;-0.12;65.25
63500;BME280;49654;51.142;14.924;2023-01-29T08:35:08;100077.94;;;-0.61;65.67
63500;BME280;49654;51.142;14.924;2023-01-29T08:37:35;100127.94;;;-0.26;65.97
63500;BME280;49654;51.142;14.924;2023-01-29T08:40:03;100146.88;;;-0.30;65.66
63500;BME280;49654;51.142;14.924;2023-01-29T08:42:30;100174.78;;;-0.42;66.70
63500;BME280;49654;51.142;14.924;2023-01-29T08:44:58;100143.34;;;-0.60;66.75
63500;BME280;49654;51.142;14.924;2023-01-29T08:47:25;100132.44;;;-0.62;66.54
63500;BME280;49654;51.142;14.924;2023-01-29T08:49:52;100174.97;;;-0.30;67.38
63500;BME280;49654;51.142;14.924;2023-01-29T08:52:19;100141.00;;;-0.63;66.96
63500;BME280;49654;51.142;14.924;2023-01-29T08:54:46;100164.41;;;-0.23;67.17
63500;BME280;49654;51.142;14.924;2023-01-29T08:57:13;100178.25;;;0.04;68.15
63500;BME280;49654;51.142;14.924;2023-01-29T08:59:40;100181.25;;;-0.04;68.03
63500;BME280;49654;51.142;14.924;2023-01-29T09:02:09;100056.53;;;-0.74;67.30
63500;BME280;49654;51.142;14.924;2023-01-29T09:04:37;100172.81;;;0.10;67.09
63500;BME280;49654;51.142;14.924;2023-01-29T09:07:03;100172.97;;;0.07;68.32
63500;BME280;49654;51.142;14.924;2023-01-29T09:09:31;100119.44;;;-0.10;67.09
63500;BME280;49654;51.142;14.924;2023-01-29T09:11:58;100123.78;;;0.04;67.12
63500;BME280;49654;51.142;14.924;2023-01-29T09:14:25;100059.69;;;-0.38;66.32
63500;BME280;49654;51.142;14.924;2023-01-29T09:16:52;100125.88;;;-0.03;66.49
63500;BME280;49654;51.142;14.924;2023-01-29T09:19:20;100095.34;;;-0.20;65.38
63500;BME280;49654;51.142;14.924;2023-01-29T09:21:47;100069.28;;;-0.11;65.86
63500;BME280;49654;51.142;14.924;2023-01-29T09:24:14;100097.19;;;0.08;65.93
63500;BME280;49654;51.142;14.924;2023-01-29T09:26:41;100111.13;;;0.18;67.24
63500;BME280;49654;51.142;14.924;2023-01-29T09:29:09;100141.44;;;0.54;66.21
63500;BME280;49654;51.142;14.924;2023-01-29T09:31:36;100107.47;;;0.22;66.15
63500;BME280;49654;51.142;14.924;2023-01-29T09:34:03;100106.94;;;0.01;67.08
63500;BME280;49654;51.142;14.924;2023-01-29T09:36:31;100028.75;;;-0.63;66.75
63500;BME280;49654;51.142;14.924;2023-01-29T09:38:58;100069.91;;;0.08;66.95
63500;BME280;49654;51.142;14.924;2023-01-29T09:41:34;100087.97;;;0.05;67.53
63500;BME280;49654;51.142;14.924;2023-01-29T09:44:10;100146.09;;;0.32;67.93
63500;BME280;49654;51.142;14.924;2023-01-29T09:46:41;100152.44;;;0.24;68.14
63500;BME280;49654;51.142;14.924;2023-01-29T09:49:13;100051.28;;;-0.40;68.58
63500;BME280;49654;51.142;14.924;2023-01-29T09:51:46;100073.50;;;-0.26;68.09
63500;BME280;49654;51.142;14.924;2023-01-29T09:54:18;100059.44;;;-0.33;68.17
63500;BME280;49654;51.142;14.924;2023-01-29T09:56:52;100092.44;;;0.02;68.27
63500;BME280;49654;51.142;14.924;2023-01-29T09:59:22;100093.50;;;-0.18;67.97
63500;BME280;49654;51.142;14.924;2023-01-29T10:01:58;100063.31;;;-0.42;68.76
63500;BME280;49654;51.142;14.924;2023-01-29T10:07:50;100152.41;;;0.10;68.67
63500;BME280;49654;51.142;14.924;2023-01-29T10:10:37;100104.47;;;-0.16;69.66
63500;BME280;49654;51.142;14.924;2023-01-29T10:13:14;100089.41;;;-0.21;69.13
63500;BME280;49654;51.142;14.924;2023-01-29T10:15:55;100057.53;;;-0.30;69.01
63500;BME280;49654;51.142;14.924;2023-01-29T10:18:53;99927.38;;;-1.07;68.88
63500;BME280;49654;51.142;14.924;2023-01-29T10:21:59;99957.41;;;-0.96;70.04
63500;BME280;49654;51.142;14.924;2023-01-29T10:24:37;100107.44;;;-0.08;70.45
63500;BME280;49654;51.142;14.924;2023-01-29T10:27:14;100098.78;;;-0.21;70.60
63500;BME280;49654;51.142;14.924;2023-01-29T10:29:46;100125.53;;;0.19;70.95
63500;BME280;49654;51.142;14.924;2023-01-29T10:32:23;100022.78;;;-0.48;70.15
63500;BME280;49654;51.142;14.924;2023-01-29T10:34:53;100020.16;;;-0.31;70.47
63500;BME280;49654;51.142;14.924;2023-01-29T10:37:41;100069.56;;;-0.16;70.35
63500;BME280;49654;51.142;14.924;2023-01-29T10:40:30;99991.19;;;-0.61;70.17
63500;BME280;49654;51.142;14.924;2023-01-29T10:43:05;99926.47;;;-0.90;70.54
63500;BME280;49654;51.142;14.924;2023-01-29T10:45:39;99945.94;;;-0.73;70.77
63500;BME280;49654;51.142;14.924;2023-01-29T10:48:39;100101.22;;;0.42;70.73
63500;BME280;49654;51.142;14.924;2023-01-29T10:51:17;100060.03;;;0.18;69.28
63500;BME280;49654;51.142;14.924;2023-01-29T10:53:56;99997.94;;;-0.29;70.07
63500;BME280;49654;51.142;14.924;2023-01-29T10:56:43;100049.84;;;0.02;70.36
63500;BME280;49654;51.142;14.924;2023-01-29T10:59:29;100084.53;;;0.36;69.67
63500;BME280;49654;51.142;14.924;2023-01-29T11:02:15;100049.44;;;0.24;69.57
63500;BME280;49654;51.142;14.924;2023-01-29T11:04:44;100005.38;;;0.20;68.92
63500;BME280;49654;51.142;14.924;2023-01-29T11:07:43;99959.53;;;-0.27;69.91
63500;BME280;49654;51.142;14.924;2023-01-29T11:10:17;100004.22;;;0.26;70.18
63500;BME280;49654;51.142;14.924;2023-01-29T11:12:49;99952.97;;;-0.01;69.56
63500;BME280;49654;51.142;14.924;2023-01-29T11:15:18;100035.28;;;0.48;69.81
63500;BME280;49654;51.142;14.924;2023-01-29T11:18:00;100044.84;;;0.45;69.90
63500;BME280;49654;51.142;14.924;2023-01-29T11:20:29;99891.00;;;-0.63;70.87
63500;BME280;49654;51.142;14.924;2023-01-29T11:22:56;100027.38;;;0.23;71.25
63500;BME280;49654;51.142;14.924;2023-01-29T11:40:43;99928.72;;;-0.08;72.43
63500;BME280;49654;51.142;14.924;2023-01-29T11:49:51;99919.75;;;-0.15;73.15
63500;BME280;49654;51.142;14.924;2023-01-29T11:52:34;99934.91;;;0.02;72.99
63500;BME280;49654;51.142;14.924;2023-01-29T11:55:44;99902.28;;;-0.37;73.23
63500;BME280;49654;51.142;14.924;2023-01-29T11:58:40;99963.03;;;0.16;73.32
63500;BME280;49654;51.142;14.924;2023-01-29T12:01:13;100017.28;;;0.36;73.26
63500;BME280;49654;51.142;14.924;2023-01-29T12:03:57;100023.50;;;0.16;73.44
63500;BME280;49654;51.142;14.924;2023-01-29T12:06:51;99980.53;;;0.08;73.66
63500;BME280;49654;51.142;14.924;2023-01-29T12:29:31;99971.38;;;0.91;72.06
63500;BME280;49654;51.142;14.924;2023-01-29T12:32:06;99958.13;;;0.99;70.26
63500;BME280;49654;51.142;14.924;2023-01-29T12:34:41;99922.72;;;0.79;69.65
63500;BME280;49654;51.142;14.924;2023-01-29T12:37:18;99911.47;;;0.81;69.84
63500;BME280;49654;51.142;14.924;2023-01-29T12:39:47;99941.75;;;1.02;70.78
63500;BME280;49654;51.142;14.924;2023-01-29T12:42:18;99944.38;;;1.14;69.33
63500;BME280;49654;51.142;14.924;2023-01-29T12:44:50;99939.59;;;0.95;69.28
63500;BME280;49654;51.142;14.924;2023-01-29T12:47:21;99891.63;;;0.99;70.08
63500;BME280;49654;51.142;14.924;2023-01-29T12:49:51;99939.66;;;1.08;69.22
63500;BME280;49654;51.142;14.924;2023-01-29T12:52:22;99929.88;;;1.00;69.79
63500;BME280;49654;51.142;14.924;2023-01-29T12:54:57;99925.22;;;0.93;69.34
63500;BME280;49654;51.142;14.924;2023-01-29T12:57:33;99892.00;;;0.93;69.34
63500;BME280;49654;51.142;14.924;2023-01-29T13:00:09;99917.38;;;0.96;69.26
63500;BME280;49654;51.142;14.924;2023-01-29T13:02:39;99879.19;;;0.66;69.08
63500;BME280;49654;51.142;14.924;2023-01-29T13:05:18;99919.41;;;0.77;70.02
63500;BME280;49654;51.142;14.924;2023-01-29T13:07:48;99912.72;;;0.88;70.53
63500;BME280;49654;51.142;14.924;2023-01-29T13:10:21;99914.88;;;0.82;71.14
63500;BME280;49654;51.142;14.924;2023-01-29T13:12:54;99904.06;;;0.91;71.71
63500;BME280;49654;51.142;14.924;2023-01-29T13:15:29;99927.91;;;0.91;71.63
63500;BME280;49654;51.142;14.924;2023-01-29T13:18:06;99911.97;;;1.00;71.17
63500;BME280;49654;51.142;14.924;2023-01-29T13:20:42;99907.34;;;0.93;70.20
63500;BME280;49654;51.142;14.924;2023-01-29T13:23:14;99909.66;;;1.10;71.26
63500;BME280;49654;51.142;14.924;2023-01-29T13:25:45;99904.69;;;0.94;71.92
63500;BME280;49654;51.142;14.924;2023-01-29T13:28:16;99887.09;;;0.75;70.85
63500;BME280;49654;51.142;14.924;2023-01-29T13:30:45;99899.13;;;0.88;70.45
63500;BME280;49654;51.142;14.924;2023-01-29T13:33:18;99909.13;;;1.05;71.17
63500;BME280;49654;51.142;14.924;2023-01-29T13:35:47;99908.41;;;1.03;70.80
63500;BME280;49654;51.142;14.924;2023-01-29T13:38:22;99896.69;;;1.13;71.03
63500;BME280;49654;51.142;14.924;2023-01-29T13:40:50;99901.63;;;1.02;70.48
63500;BME280;49654;51.142;14.924;2023-01-29T13:43:19;99875.31;;;0.87;71.23
63500;BME280;49654;51.142;14.924;2023-01-29T13:45:50;99883.22;;;0.97;72.36
63500;BME280;49654;51.142;14.924;2023-01-29T13:48:23;99885.00;;;1.09;70.83
63500;BME280;49654;51.142;14.924;2023-01-29T13:50:52;99899.09;;;1.29;70.41
63500;BME280;49654;51.142;14.924;2023-01-29T13:53:22;99888.31;;;1.24;70.26
63500;BME280;49654;51.142;14.924;2023-01-29T13:55:50;99880.03;;;1.20;69.43
63500;BME280;49654;51.142;14.924;2023-01-29T13:58:53;99886.47;;;1.13;70.16
63500;BME280;49654;51.142;14.924;2023-01-29T14:04:33;99867.34;;;1.19;70.75
63500;BME280;49654;51.142;14.924;2023-01-29T14:07:00;99892.28;;;1.15;70.34
63500;BME280;49654;51.142;14.924;2023-01-29T14:12:45;99885.69;;;1.25;69.75
63500;BME280;49654;51.142;14.924;2023-01-29T14:18:14;99879.53;;;1.28;70.03
63500;BME280;49654;51.142;14.924;2023-01-29T14:20:57;99865.34;;;1.37;69.89
63500;BME280;49654;51.142;14.924;2023-01-29T14:23:32;99866.13;;;1.64;68.84
63500;BME280;49654;51.142;14.924;2023-01-29T14:26:03;99855.59;;;1.82;68.69
63500;BME280;49654;51.142;14.924;2023-01-29T14:28:32;99857.34;;;1.94;68.30
63500;BME280;49654;51.142;14.924;2023-01-29T14:31:01;99863.47;;;2.04;68.04
63500;BME280;49654;51.142;14.924;2023-01-29T14:33:33;99834.91;;;1.97;67.87
63500;BME280;49654;51.142;14.924;2023-01-29T14:36:06;99873.91;;;2.14;67.60
63500;BME280;49654;51.142;14.924;2023-01-29T14:38:35;99845.84;;;1.87;67.40
63500;BME280;49654;51.142;14.924;2023-01-29T14:41:23;99870.22;;;1.80;67.38
63500;BME280;49654;51.142;14.924;2023-01-29T14:43:50;99846.97;;;1.83;67.10
63500;BME280;49654;51.142;14.924;2023-01-29T14:46:44;99861.72;;;1.92;67.31
63500;BME280;49654;51.142;14.924;2023-01-29T14:49:11;99858.84;;;1.71;67.41
63500;BME280;49654;51.142;14.924;2023-01-29T14:51:42;99844.81;;;1.51;67.93
63500;BME280;49654;51.142;14.924;2023-01-29T14:54:17;99874.19;;;1.71;67.65
63500;BME280;49654;51.142;14.924;2023-01-29T14:56:55;99867.63;;;1.54;67.61
63500;BME280;49654;51.142;14.924;2023-01-29T14:59:28;99877.03;;;1.54;67.72
63500;BME280;49654;51.142;14.924;2023-01-29T15:01:59;99875.84;;;1.59;67.80
63500;BME280;49654;51.142;14.924;2023-01-29T15:04:31;99864.09;;;1.30;67.65
63500;BME280;49654;51.142;14.924;2023-01-29T15:07:02;99884.84;;;1.52;68.06
63500;BME280;49654;51.142;14.924;2023-01-29T15:09:37;99865.47;;;1.48;67.59
63500;BME280;49654;51.142;14.924;2023-01-29T15:12:14;99832.91;;;1.37;67.40
63500;BME280;49654;51.142;14.924;2023-01-29T15:14:48;99892.16;;;1.84;66.91